createdAt,value
2022-08-09T00:00:21.592Z,17.56
2022-08-09T00:02:52.627Z,17.55
2022-08-09T00:08:57.736Z,17.62
2022-08-09T00:12:03.506Z,17.54
2022-08-09T00:25:51.843Z,17.60
2022-08-09T00:29:39.215Z,17.61
2022-08-09T00:32:01.486Z,17.70
2022-08-09T00:34:32.682Z,17.75
2022-08-09T00:37:00.715Z,17.71
2022-08-09T00:40:14.049Z,17.72
2022-08-09T00:44:10.835Z,17.63
2022-08-09T00:45:16.636Z,17.60
2022-08-09T00:47:47.384Z,17.65
2022-08-09T00:50:15.175Z,17.51
2022-08-09T00:52:45.908Z,17.46
2022-08-09T00:55:16.703Z,17.37
2022-08-09T00:58:00.513Z,17.31
2022-08-09T01:00:28.499Z,17.34
2022-08-09T01:03:05.257Z,17.37
2022-08-09T01:05:54.613Z,17.31
2022-08-09T01:08:38.480Z,17.25
2022-08-09T01:11:26.476Z,17.30
2022-08-09T01:14:16.253Z,17.21
2022-08-09T01:16:55.062Z,17.29
2022-08-09T01:20:01.676Z,17.23
2022-08-09T01:22:32.809Z,17.21
2022-08-09T01:25:31.767Z,17.19
2022-08-09T01:28:15.949Z,17.19
2022-08-09T01:30:53.142Z,17.14
2022-08-09T01:33:33.322Z,17.13
2022-08-09T01:36:08.917Z,17.19
2022-08-09T01:38:47.326Z,17.18
2022-08-09T01:41:37.605Z,17.13
2022-08-09T01:44:44.253Z,17.17
2022-08-09T01:47:44.600Z,17.12
2022-08-09T01:51:03.900Z,17.09
2022-08-09T01:54:09.552Z,17.13
2022-08-09T01:56:51.472Z,17.01
2022-08-09T01:59:50.826Z,17.01
2022-08-09T02:02:18.666Z,16.94
2022-08-09T02:04:52.385Z,16.93
2022-08-09T02:08:39.346Z,16.79
2022-08-09T02:10:30.789Z,16.86
2022-08-09T02:13:03.211Z,16.82
2022-08-09T02:15:49.420Z,16.79
2022-08-09T02:18:24.118Z,16.78
2022-08-09T02:21:06.775Z,16.81
2022-08-09T02:23:52.403Z,16.77
2022-08-09T02:26:27.114Z,16.77
2022-08-09T02:29:15.097Z,16.78
2022-08-09T02:31:56.113Z,16.76
2022-08-09T02:34:40.515Z,16.68
2022-08-09T02:37:22.476Z,16.76
2022-08-09T02:40:09.504Z,16.72
2022-08-09T02:42:45.227Z,16.72
2022-08-09T02:45:50.658Z,16.73
2022-08-09T02:48:31.056Z,16.77
2022-08-09T02:51:06.653Z,16.69
2022-08-09T02:53:43.140Z,16.77
2022-08-09T02:56:28.568Z,16.86
2022-08-09T02:59:01.416Z,16.82
2022-08-09T03:02:11.957Z,16.86
2022-08-09T03:04:55.704Z,16.98
2022-08-09T03:07:55.626Z,16.91
2022-08-09T03:10:46.055Z,16.94
2022-08-09T03:13:43.722Z,16.87
2022-08-09T03:16:48.433Z,16.85
2022-08-09T03:19:59.553Z,16.84
2022-08-09T03:22:30.131Z,16.65
2022-08-09T03:25:26.775Z,16.64
2022-08-09T03:28:11.367Z,16.61
2022-08-09T03:30:48.946Z,16.60
2022-08-09T03:37:56.105Z,16.66
2022-08-09T03:39:55.631Z,16.62
2022-08-09T03:42:29.418Z,16.56
2022-08-09T03:46:02.942Z,16.50
2022-08-09T03:48:18.956Z,16.55
2022-08-09T03:51:57.381Z,16.48
2022-08-09T03:54:18.097Z,16.49
2022-08-09T03:57:17.944Z,16.46
2022-08-09T04:00:00.487Z,16.53
2022-08-09T04:03:05.173Z,16.53
2022-08-09T04:05:40.230Z,16.52
2022-08-09T04:08:46.712Z,16.60
2022-08-09T04:11:55.329Z,16.63
2022-08-09T04:14:53.963Z,16.63
2022-08-09T04:17:25.159Z,16.65
2022-08-09T04:20:03.566Z,16.69
2022-08-09T04:22:47.714Z,16.70
2022-08-09T04:25:25.947Z,16.81
2022-08-09T04:28:02.650Z,16.76
2022-08-09T04:30:36.879Z,16.84
2022-08-09T04:33:23.652Z,16.91
2022-08-09T04:36:40.406Z,16.94
2022-08-09T04:40:56.304Z,16.99
2022-08-09T04:42:59.804Z,17.03
2022-08-09T04:45:36.083Z,17.09
2022-08-09T04:48:23.762Z,17.14
2022-08-09T04:51:00.644Z,17.23
2022-08-09T04:53:41.477Z,17.36
2022-08-09T04:56:45.313Z,17.44
2022-08-09T04:59:15.726Z,17.53
2022-08-09T05:01:42.911Z,17.63
2022-08-09T05:04:09.892Z,17.74
2022-08-09T05:06:37.170Z,17.79
2022-08-09T05:09:04.261Z,17.87
2022-08-09T05:11:35.257Z,17.93
2022-08-09T05:14:06.197Z,17.98
2022-08-09T05:16:43.568Z,18.07
2022-08-09T05:19:25.714Z,18.16
2022-08-09T05:21:55.659Z,18.20
2022-08-09T05:24:24.682Z,18.30
2022-08-09T05:26:53.154Z,18.34
2022-08-09T05:29:23.910Z,18.39
2022-08-09T05:31:57.414Z,18.53
2022-08-09T05:34:32.655Z,18.58
2022-08-09T05:37:06.273Z,18.68
2022-08-09T05:39:42.631Z,18.74
2022-08-09T05:42:17.375Z,18.86
2022-08-09T05:44:51.761Z,18.99
2022-08-09T05:47:23.793Z,19.11
2022-08-09T05:50:24.209Z,19.18
2022-08-09T05:52:41.868Z,19.24
2022-08-09T05:55:09.795Z,19.37
2022-08-09T05:57:55.611Z,19.49
2022-08-09T06:00:30.793Z,19.55
2022-08-09T06:03:02.559Z,19.72
2022-08-09T06:05:50.311Z,19.89
2022-08-09T06:08:24.766Z,19.93
2022-08-09T06:10:56.218Z,20.17
2022-08-09T06:13:24.662Z,20.13
2022-08-09T06:15:52.975Z,20.13
2022-08-09T06:18:23.800Z,20.04
2022-08-09T06:20:54.622Z,20.18
2022-08-09T06:23:58.236Z,20.20
2022-08-09T06:26:13.205Z,20.34
2022-08-09T06:28:43.480Z,20.53
2022-08-09T06:31:10.786Z,20.63
2022-08-09T06:33:41.040Z,20.69
2022-08-09T06:36:11.878Z,20.60
2022-08-09T06:38:47.270Z,20.74
2022-08-09T06:41:18.751Z,20.69
2022-08-09T06:43:48.379Z,20.86
2022-08-09T06:46:39.785Z,20.89
2022-08-09T06:49:03.516Z,20.96
2022-08-09T06:51:30.842Z,21.12
2022-08-09T06:54:00.723Z,21.10
2022-08-09T06:56:31.174Z,21.28
2022-08-09T07:00:51.428Z,21.18
2022-08-09T07:01:58.011Z,21.41
2022-08-09T07:04:27.065Z,21.34
2022-08-09T07:07:00.057Z,21.46
2022-08-09T07:09:55.013Z,21.57
2022-08-09T07:12:20.115Z,21.57
2022-08-09T07:16:34.945Z,21.57
2022-08-09T07:18:02.127Z,21.66
2022-08-09T07:20:29.767Z,21.83
2022-08-09T07:22:57.358Z,22.00
2022-08-09T07:25:25.834Z,21.91
2022-08-09T07:27:56.097Z,21.83
2022-08-09T07:30:25.302Z,21.84
2022-08-09T07:32:53.451Z,21.95
2022-08-09T07:35:22.580Z,22.17
2022-08-09T07:37:50.695Z,22.08
2022-08-09T07:40:27.093Z,22.07
2022-08-09T07:43:00.971Z,22.31
2022-08-09T07:45:40.344Z,22.37
2022-08-09T07:48:25.409Z,22.72
2022-08-09T07:51:10.013Z,22.77
2022-08-09T07:54:06.607Z,22.70
2022-08-09T07:56:33.972Z,22.90
2022-08-09T07:59:01.759Z,22.83
2022-08-09T08:01:33.083Z,22.82
2022-08-09T08:04:02.671Z,22.82
2022-08-09T08:06:32.250Z,22.95
2022-08-09T08:09:05.095Z,23.15
2022-08-09T08:12:10.416Z,23.29
2022-08-09T08:14:24.082Z,23.32
2022-08-09T08:17:07.316Z,23.41
2022-08-09T08:19:35.394Z,23.44
2022-08-09T08:22:03.248Z,23.14
2022-08-09T08:24:40.205Z,23.03
2022-08-09T08:27:16.826Z,23.15
2022-08-09T08:29:48.709Z,23.32
2022-08-09T08:32:24.354Z,23.29
2022-08-09T08:34:58.938Z,23.48
2022-08-09T08:37:41.561Z,23.48
2022-08-09T08:40:15.600Z,23.61
2022-08-09T08:42:47.073Z,23.41
2022-08-09T08:45:37.474Z,23.22
2022-08-09T08:48:10.278Z,23.39
2022-08-09T08:50:51.857Z,23.81
2022-08-09T08:53:22.037Z,23.78
2022-08-09T08:55:53.368Z,23.85
2022-08-09T08:58:49.288Z,23.96
2022-08-09T09:01:35.460Z,23.98
2022-08-09T09:04:27.110Z,24.27
2022-08-09T09:06:58.143Z,23.96
2022-08-09T09:09:58.299Z,24.12
2022-08-09T09:12:23.471Z,24.34
2022-08-09T09:15:00.477Z,24.02
2022-08-09T09:17:48.482Z,24.15
2022-08-09T09:20:21.431Z,24.28
2022-08-09T09:22:53.657Z,24.21
2022-08-09T09:26:02.078Z,24.19
2022-08-09T09:29:02.237Z,24.08
2022-08-09T09:32:06.289Z,24.45
2022-08-09T09:34:24.141Z,25.01
2022-08-09T09:47:56.533Z,25.04
2022-08-09T10:01:31.217Z,25.16
2022-08-09T10:04:30.923Z,24.58
2022-08-09T10:07:30.095Z,24.70
2022-08-09T10:13:50.303Z,25.33
2022-08-09T10:16:58.231Z,25.54
2022-08-09T10:19:18.100Z,25.32
2022-08-09T10:22:14.647Z,25.31
2022-08-09T10:25:34.810Z,25.34
2022-08-09T10:29:34.833Z,25.43
2022-08-09T10:35:00.952Z,25.48
2022-08-09T10:37:46.536Z,25.40
2022-08-09T10:42:26.960Z,25.59
2022-08-09T10:43:59.125Z,25.46
2022-08-09T10:46:57.276Z,25.43
2022-08-09T10:49:51.698Z,25.35
2022-08-09T10:52:42.760Z,25.57
2022-08-09T10:55:26.675Z,25.84
2022-08-09T10:57:59.879Z,26.03
2022-08-09T11:00:41.776Z,25.87
2022-08-09T11:03:51.325Z,25.95
2022-08-09T11:06:15.558Z,25.62
2022-08-09T11:08:54.164Z,26.15
2022-08-09T11:11:23.379Z,26.07
2022-08-09T11:14:31.791Z,26.46
2022-08-09T11:16:59.610Z,26.35
2022-08-09T11:20:12.253Z,26.24
2022-08-09T11:22:55.294Z,26.18
2022-08-09T12:15:07.812Z,27.16
2022-08-09T12:17:43.665Z,27.16
2022-08-09T12:20:22.206Z,27.00
2022-08-09T12:23:00.319Z,27.26
2022-08-09T12:25:35.992Z,27.52
2022-08-09T13:27:40.262Z,28.65
2022-08-09T14:33:20.649Z,28.51
2022-08-09T14:35:52.706Z,28.51
2022-08-09T14:38:20.372Z,28.26
2022-08-09T14:41:02.271Z,28.53
2022-08-09T14:43:47.565Z,28.42
2022-08-09T14:46:57.965Z,28.35
2022-08-09T14:49:03.173Z,28.32
2022-08-09T14:51:30.521Z,27.83
2022-08-09T14:54:09.688Z,28.08
2022-08-09T14:56:57.288Z,28.31
2022-08-09T14:59:23.831Z,28.35
2022-08-09T15:01:50.676Z,28.08
2022-08-09T15:04:23.658Z,27.71
2022-08-09T15:06:51.696Z,27.56
2022-08-09T15:10:03.501Z,27.78
2022-08-09T15:12:08.117Z,27.94
2022-08-09T15:14:38.751Z,28.09
2022-08-09T15:17:09.891Z,28.34
2022-08-09T15:19:54.518Z,28.32
2022-08-09T15:22:26.222Z,28.35
2022-08-09T15:24:54.299Z,28.37
2022-08-09T15:27:22.070Z,28.44
2022-08-09T15:30:59.194Z,28.14
2022-08-09T15:32:37.058Z,27.80
2022-08-09T15:35:18.375Z,27.86
2022-08-09T15:37:56.631Z,28.01
2022-08-09T15:40:37.947Z,28.13
2022-08-09T15:43:13.326Z,28.30
2022-08-09T15:45:51.724Z,28.28
2022-08-09T15:48:30.658Z,27.87
2022-08-09T15:51:00.145Z,27.69
2022-08-09T15:54:05.002Z,27.66
2022-08-09T15:56:28.994Z,27.40
2022-08-09T15:58:58.135Z,27.37
2022-08-09T16:01:25.680Z,27.46
2022-08-09T16:03:53.228Z,27.58
2022-08-09T16:06:32.774Z,27.33
2022-08-09T16:09:05.293Z,27.17
2022-08-09T16:11:33.176Z,27.35
2022-08-09T16:14:05.902Z,27.43
2022-08-09T16:16:37.247Z,27.29
2022-08-09T16:19:07.608Z,27.18
2022-08-09T16:21:38.958Z,27.08
2022-08-09T16:24:19.955Z,27.08
2022-08-09T16:26:55.220Z,26.99
2022-08-09T16:29:36.721Z,26.85
2022-08-09T16:32:18.419Z,26.84
2022-08-09T16:34:56.691Z,26.80
2022-08-09T16:37:54.527Z,26.68
2022-08-09T16:40:20.695Z,26.69
2022-08-09T16:43:02.441Z,26.62
2022-08-09T16:45:29.464Z,26.50
2022-08-09T16:48:42.026Z,26.39
2022-08-09T16:50:59.314Z,26.39
2022-08-09T16:53:34.039Z,26.31
2022-08-09T16:56:07.558Z,26.35
2022-08-09T16:58:39.879Z,26.38
2022-08-09T17:01:10.476Z,26.26
2022-08-09T17:03:37.483Z,26.12
2022-08-09T17:06:28.092Z,26.11
2022-08-09T17:09:03.211Z,25.91
2022-08-09T17:11:40.676Z,25.92
2022-08-09T17:14:25.358Z,25.93
2022-08-09T17:16:59.524Z,25.82
2022-08-09T17:20:05.181Z,25.74
2022-08-09T17:22:23.774Z,25.62
2022-08-09T17:24:55.840Z,25.55
2022-08-09T17:27:31.823Z,25.55
2022-08-09T17:29:58.724Z,25.49
2022-08-09T17:32:37.455Z,25.45
2022-08-09T17:35:12.317Z,25.27
2022-08-09T17:38:12.578Z,25.31
2022-08-09T17:40:33.392Z,25.26
2022-08-09T17:43:32.503Z,25.18
2022-08-09T17:46:02.919Z,25.06
2022-08-09T17:48:39.479Z,25.01
2022-08-09T17:51:18.669Z,24.98
2022-08-09T17:53:52.925Z,24.85
2022-08-09T17:56:29.313Z,24.72
2022-08-09T17:59:11.895Z,24.58
2022-08-09T18:02:07.785Z,24.52
2022-08-09T18:04:30.461Z,24.38
2022-08-09T18:07:00.282Z,24.36
2022-08-09T18:09:40.639Z,24.26
2022-08-09T18:12:17.802Z,24.13
2022-08-09T18:14:53.827Z,24.07
2022-08-09T18:17:27.624Z,23.95
2022-08-09T18:20:54.310Z,23.80
2022-08-09T18:23:05.635Z,23.69
2022-08-09T18:25:51.076Z,23.81
2022-08-09T18:30:40.180Z,23.70
2022-08-09T18:31:08.995Z,23.62
2022-08-09T18:33:36.326Z,23.52
2022-08-09T18:36:03.472Z,23.38
2022-08-09T18:38:31.394Z,23.27
2022-08-09T18:40:58.542Z,23.09
2022-08-09T18:43:25.414Z,23.11
2022-08-09T18:46:50.073Z,23.12
2022-08-09T18:48:42.523Z,23.01
2022-08-09T18:51:10.150Z,22.89
2022-08-09T18:54:01.873Z,22.80
2022-08-09T18:56:28.028Z,22.72
2022-08-09T18:58:57.060Z,22.59
2022-08-09T19:01:24.717Z,22.48
2022-08-09T19:04:01.728Z,22.41
2022-08-09T19:06:39.031Z,22.39
2022-08-09T19:09:34.323Z,22.24
2022-08-09T19:12:04.918Z,22.07
2022-08-09T19:14:32.070Z,22.08
2022-08-09T19:16:58.900Z,22.03
2022-08-09T19:19:28.184Z,22.00
2022-08-09T19:22:06.500Z,22.01
2022-08-09T19:27:21.730Z,21.87
2022-08-09T19:30:23.104Z,21.80
2022-08-09T19:32:36.800Z,21.78
2022-08-09T19:35:04.627Z,21.74
2022-08-09T19:37:41.063Z,21.75
2022-08-09T19:40:19.710Z,21.62
2022-08-09T19:42:47.468Z,21.47
2022-08-09T19:45:16.811Z,21.41
2022-08-09T19:47:44.771Z,21.46
2022-08-09T19:50:49.070Z,21.41
2022-08-09T19:53:04.117Z,21.37
2022-08-09T19:56:03.261Z,21.33
2022-08-09T19:58:29.661Z,21.31
2022-08-09T20:00:58.054Z,21.30
2022-08-09T20:03:25.384Z,21.23
2022-08-09T20:06:24.035Z,21.28
2022-08-09T20:08:57.576Z,21.31
2022-08-09T20:11:43.165Z,21.24
2022-08-09T20:14:15.709Z,21.19
2022-08-09T20:16:53.727Z,21.11
2022-08-09T20:19:47.951Z,21.03
2022-08-09T20:22:10.069Z,20.95
2022-08-09T20:24:41.072Z,20.93
2022-08-09T20:27:08.917Z,20.88
2022-08-09T20:29:39.411Z,20.90
2022-08-09T20:32:30.509Z,20.84
2022-08-09T20:34:59.781Z,20.90
2022-08-09T20:37:37.299Z,20.80
2022-08-09T20:40:24.678Z,20.83
2022-08-09T20:43:12.349Z,20.76
2022-08-09T20:46:00.838Z,20.87
2022-08-09T20:48:31.116Z,20.74
2022-08-09T20:51:03.146Z,20.68
2022-08-09T20:53:35.141Z,20.65
2022-08-09T20:56:17.412Z,20.58
2022-08-09T20:58:54.637Z,20.53
2022-08-09T21:01:34.867Z,20.53
2022-08-09T21:05:51.580Z,20.56
2022-08-09T21:07:10.986Z,20.44
2022-08-09T21:09:45.185Z,20.41
2022-08-09T21:14:48.207Z,20.34
2022-08-09T21:18:20.974Z,20.27
2022-08-09T21:20:18.832Z,20.17
2022-08-09T21:22:54.276Z,20.17
2022-08-09T21:25:44.479Z,20.05
2022-08-09T21:28:34.513Z,20.17
2022-08-09T21:31:17.803Z,20.16
2022-08-09T21:33:52.563Z,20.24
2022-08-09T21:36:28.788Z,20.24
2022-08-09T21:38:59.895Z,20.26
2022-08-09T21:42:04.353Z,20.23
2022-08-09T21:44:34.563Z,20.23
2022-08-09T21:47:08.634Z,20.14
2022-08-09T21:49:39.656Z,19.98
2022-08-09T21:52:16.499Z,19.81
2022-08-09T21:55:02.782Z,19.67
2022-08-09T21:57:38.199Z,19.62
2022-08-09T22:00:32.169Z,19.50
2022-08-09T22:03:06.345Z,19.54
2022-08-09T22:05:41.992Z,19.56
2022-08-09T22:08:13.617Z,19.49
2022-08-09T22:11:49.808Z,19.40
2022-08-09T22:13:35.398Z,19.35
2022-08-09T22:16:08.539Z,19.45
2022-08-09T22:18:52.220Z,19.34
2022-08-09T22:21:44.703Z,19.38
2022-08-09T22:24:16.713Z,19.35
2022-08-09T22:26:51.111Z,19.32
2022-08-09T22:29:19.185Z,19.34
2022-08-09T22:31:56.564Z,19.31
2022-08-09T22:34:27.359Z,19.31
2022-08-09T22:36:55.494Z,19.24
2022-08-09T22:39:55.654Z,19.22
2022-08-09T22:42:22.415Z,19.13
2022-08-09T22:45:00.337Z,18.99
2022-08-09T22:48:14.137Z,18.92
2022-08-09T22:50:30.811Z,18.78
2022-08-09T22:52:58.903Z,18.74
2022-08-09T22:55:39.335Z,18.66
2022-08-09T22:58:31.020Z,18.51
2022-08-09T23:01:02.126Z,18.55
2022-08-09T23:04:02.433Z,18.48
2022-08-09T23:06:35.306Z,18.52
2022-08-09T23:09:05.143Z,18.48
2022-08-09T23:11:32.096Z,18.51
2022-08-09T23:13:59.777Z,18.49
2022-08-09T23:16:26.709Z,18.54
2022-08-09T23:18:53.512Z,18.51
2022-08-09T23:21:25.190Z,18.43
2022-08-09T23:24:05.571Z,18.36
2022-08-09T23:26:37.011Z,18.39
2022-08-09T23:29:05.926Z,18.33
2022-08-09T23:31:33.092Z,18.27
2022-08-09T23:34:00.143Z,18.23
2022-08-09T23:50:10.988Z,18.07
2022-08-09T23:52:37.905Z,18.08
2022-08-09T23:55:06.374Z,18.05
2022-08-09T23:57:44.972Z,18.09
